createdAt,value
2024-04-06T05:00:44.569Z,15.28
2024-04-06T05:01:44.527Z,15.28
2024-04-06T05:02:44.491Z,15.25
2024-04-06T05:03:44.481Z,15.20
2024-04-06T05:04:44.474Z,15.23
2024-04-06T05:05:44.491Z,15.17
2024-04-06T05:06:44.455Z,15.27
2024-04-06T05:07:44.453Z,15.29
2024-04-06T05:08:44.427Z,15.14
2024-04-06T05:09:44.420Z,15.21
2024-04-06T05:10:44.403Z,15.23
2024-04-06T05:11:49.437Z,15.16
2024-04-06T05:12:44.382Z,15.11
2024-04-06T05:13:44.377Z,15.13
2024-04-06T05:14:44.381Z,15.19
2024-04-06T05:15:44.348Z,15.09
2024-04-06T05:16:44.347Z,15.19
2024-04-06T05:17:44.350Z,15.14
2024-04-06T05:18:44.327Z,15.19
2024-04-06T05:19:44.318Z,15.14
2024-04-06T05:20:44.305Z,15.14
2024-04-06T05:21:44.294Z,15.13
2024-04-06T05:22:49.290Z,15.17
2024-04-06T05:23:44.263Z,15.17
2024-04-06T05:24:44.262Z,15.23
2024-04-06T05:25:44.239Z,15.14
2024-04-06T05:26:44.233Z,15.17
2024-04-06T05:27:44.216Z,15.13
2024-04-06T05:28:44.204Z,15.20
2024-04-06T05:29:44.195Z,15.14
2024-04-06T05:30:44.198Z,15.25
2024-04-06T05:31:44.199Z,15.14
2024-04-06T05:32:44.196Z,15.17
2024-04-06T05:33:49.171Z,15.21
2024-04-06T05:34:44.151Z,15.19
2024-04-06T05:35:44.123Z,15.31
2024-04-06T05:36:44.132Z,15.28
2024-04-06T05:37:44.102Z,15.27
2024-04-06T05:38:44.128Z,15.25
2024-04-06T05:39:44.084Z,15.28
2024-04-06T05:40:44.066Z,15.31
2024-04-06T05:41:44.079Z,15.39
2024-04-06T05:42:44.054Z,15.36
2024-04-06T05:43:44.036Z,15.38
2024-04-06T05:44:49.053Z,15.49
2024-04-06T05:45:44.020Z,15.50
2024-04-06T05:46:43.998Z,15.57
2024-04-06T05:47:44.000Z,15.65
2024-04-06T05:48:43.984Z,15.76
2024-04-06T05:49:43.967Z,16.01
2024-04-06T05:50:44.000Z,16.25
2024-04-06T05:51:43.950Z,16.46
2024-04-06T05:52:43.928Z,16.60
2024-04-06T05:53:43.978Z,16.57
2024-04-06T05:54:43.928Z,16.31
2024-04-06T05:55:48.934Z,16.15
2024-04-06T05:56:43.884Z,16.08
2024-04-06T05:57:43.875Z,15.97
2024-04-06T05:58:43.896Z,15.97
2024-04-06T05:59:43.862Z,15.84
2024-04-06T06:00:43.837Z,15.76
2024-04-06T06:01:43.932Z,15.76
2024-04-06T06:02:43.857Z,15.75
2024-04-06T06:03:43.872Z,15.75
2024-04-06T06:04:44.006Z,15.75
2024-04-06T06:05:43.797Z,15.74
2024-04-06T06:06:48.811Z,15.76
2024-04-06T06:07:43.801Z,15.76
2024-04-06T06:08:43.788Z,15.74
2024-04-06T06:09:43.785Z,15.87
2024-04-06T06:10:43.754Z,15.87
2024-04-06T06:11:43.731Z,15.89
2024-04-06T06:12:43.718Z,15.83
2024-04-06T06:13:43.696Z,15.78
2024-04-06T06:14:43.698Z,15.71
2024-04-06T06:15:43.677Z,15.67
2024-04-06T06:16:43.684Z,15.62
2024-04-06T06:17:48.678Z,15.69
2024-04-06T06:18:43.639Z,15.71
2024-04-06T06:19:43.637Z,15.71
2024-04-06T06:20:43.626Z,15.74
2024-04-06T06:21:45.764Z,15.78
2024-04-06T06:22:43.599Z,15.84
2024-04-06T06:23:43.602Z,15.89
2024-04-06T06:24:43.571Z,15.83
2024-04-06T06:25:43.560Z,15.83
2024-04-06T06:26:43.563Z,15.83
2024-04-06T06:27:46.232Z,15.89
2024-04-06T06:28:48.565Z,15.86
2024-04-06T06:29:43.530Z,15.84
2024-04-06T06:30:43.519Z,15.92
2024-04-06T06:31:43.524Z,15.92
2024-04-06T06:32:43.494Z,16.00
2024-04-06T06:33:43.472Z,16.02
2024-04-06T06:34:43.478Z,16.09
2024-04-06T06:40:43.451Z,16.56
2024-04-06T06:41:43.632Z,16.57
2024-04-06T06:42:43.383Z,16.70
2024-04-06T06:43:43.364Z,16.71
2024-04-06T06:44:43.356Z,16.76
2024-04-06T06:45:43.355Z,16.76
2024-04-06T06:46:43.357Z,16.81
2024-04-06T06:47:45.277Z,16.81
2024-04-06T06:48:43.322Z,16.81
2024-04-06T06:49:43.294Z,16.81
2024-04-06T06:50:48.302Z,16.88
2024-04-06T06:51:43.271Z,16.86
2024-04-06T06:52:43.290Z,16.94
2024-04-06T06:53:43.264Z,17.00
2024-04-06T06:54:43.233Z,17.21
2024-04-06T06:55:43.239Z,17.54
2024-04-06T06:56:43.241Z,17.86
2024-04-06T06:57:43.208Z,18.05
2024-04-06T06:58:43.212Z,18.23
2024-04-06T07:00:43.214Z,18.66
2024-04-06T07:01:48.194Z,18.75
2024-04-06T07:02:43.160Z,18.76
2024-04-06T07:03:43.139Z,18.66
2024-04-06T07:04:43.146Z,18.85
2024-04-06T07:05:43.117Z,18.98
2024-04-06T07:07:43.093Z,19.04
2024-04-06T07:09:02.206Z,19.00
2024-04-06T07:09:44.080Z,18.76
2024-04-06T07:10:43.080Z,18.80
2024-04-06T07:11:43.049Z,18.95
2024-04-06T07:12:48.058Z,19.00
2024-04-06T07:13:43.045Z,19.18
2024-04-06T07:14:43.018Z,19.19
2024-04-06T07:15:43.019Z,18.92
2024-04-06T07:16:42.999Z,18.62
2024-04-06T07:17:42.986Z,18.63
2024-04-06T07:18:42.975Z,18.60
2024-04-06T07:19:42.958Z,18.50
2024-04-06T07:20:42.945Z,18.39
2024-04-06T07:21:42.960Z,18.29
2024-04-06T07:22:42.929Z,18.32
2024-04-06T07:23:47.962Z,18.14
2024-04-06T07:24:42.906Z,18.21
2024-04-06T07:25:45.481Z,18.52
2024-04-06T07:26:42.897Z,18.45
2024-04-06T07:27:42.872Z,18.41
2024-04-06T07:28:42.858Z,18.42
2024-04-06T07:29:42.853Z,18.25
2024-04-06T07:30:42.841Z,18.14
2024-04-06T07:31:42.825Z,18.14
2024-04-06T07:32:42.840Z,18.15
2024-04-06T07:33:42.803Z,18.14
2024-04-06T07:34:47.811Z,18.11
2024-04-06T07:35:42.784Z,18.10
2024-04-06T07:36:42.776Z,18.14
2024-04-06T07:37:42.758Z,18.14
2024-04-06T07:39:42.746Z,18.10
2024-04-06T07:40:42.728Z,18.08
2024-04-06T07:41:42.716Z,18.15
2024-04-06T07:42:42.959Z,18.23
2024-04-06T07:43:42.693Z,18.35
2024-04-06T07:44:42.689Z,18.39
2024-04-06T07:45:47.699Z,18.42
2024-04-06T07:46:42.693Z,18.47
2024-04-06T07:47:42.648Z,18.63
2024-04-06T07:48:42.634Z,18.72
2024-04-06T07:49:42.669Z,18.91
2024-04-06T07:50:42.621Z,18.94
2024-04-06T07:51:42.611Z,19.13
2024-04-06T07:52:42.594Z,19.10
2024-04-06T07:53:42.595Z,18.85
2024-04-06T07:54:42.569Z,18.92
2024-04-06T07:55:42.577Z,19.06
2024-04-06T07:56:47.586Z,19.16
2024-04-06T07:57:42.547Z,19.16
2024-04-06T07:58:42.521Z,19.44
2024-04-06T07:59:42.512Z,19.56
2024-04-06T08:00:42.525Z,19.73
2024-04-06T08:01:42.492Z,19.84
2024-04-06T08:02:42.478Z,20.16
2024-04-06T08:03:42.492Z,20.10
2024-04-06T08:04:42.458Z,19.84
2024-04-06T08:05:42.447Z,19.95
2024-04-06T08:06:42.445Z,20.24
2024-04-06T08:07:47.447Z,20.51
2024-04-06T08:08:42.410Z,20.72
2024-04-06T08:09:42.415Z,20.97
2024-04-06T08:10:42.424Z,21.32
2024-04-06T08:11:42.411Z,21.47
2024-04-06T08:12:42.377Z,21.03
2024-04-06T08:13:42.358Z,21.04
2024-04-06T08:14:42.345Z,21.17
2024-04-06T08:15:42.344Z,21.32
2024-04-06T08:16:42.335Z,21.42
2024-04-06T08:17:42.325Z,21.35
2024-04-06T08:18:47.326Z,21.50
2024-04-06T08:19:42.287Z,21.74
2024-04-06T08:20:42.290Z,22.05
2024-04-06T08:21:42.283Z,22.40
2024-04-06T08:22:42.279Z,22.35
2024-04-06T08:23:42.247Z,22.14
2024-04-06T08:24:42.236Z,21.61
2024-04-06T08:25:42.226Z,21.40
2024-04-06T08:26:42.239Z,21.38
2024-04-06T08:27:42.220Z,21.46
2024-04-06T08:28:42.196Z,21.58
2024-04-06T08:29:47.204Z,21.52
2024-04-06T08:30:42.171Z,21.53
2024-04-06T08:31:42.162Z,21.59
2024-04-06T08:32:42.171Z,21.65
2024-04-06T08:33:42.154Z,21.67
2024-04-06T08:34:42.127Z,21.83
2024-04-06T08:35:42.136Z,21.96
2024-04-06T08:36:42.108Z,22.10
2024-04-06T08:37:42.115Z,22.40
2024-04-06T08:38:42.083Z,22.54
2024-04-06T08:39:42.112Z,22.61
2024-04-06T08:40:47.085Z,22.49
2024-04-06T08:41:42.056Z,22.36
2024-04-06T08:42:42.046Z,22.21
2024-04-06T08:43:42.040Z,22.12
2024-04-06T08:44:42.023Z,22.00
2024-04-06T08:45:42.031Z,22.07
2024-04-06T08:46:42.001Z,22.07
2024-04-06T08:47:41.995Z,22.12
2024-04-06T08:48:42.005Z,22.22
2024-04-06T08:49:41.977Z,22.28
2024-04-06T08:50:41.974Z,22.27
2024-04-06T08:51:46.973Z,22.43
2024-04-06T08:52:41.934Z,22.60
2024-04-06T08:53:41.919Z,22.58
2024-04-06T08:54:41.929Z,22.80
2024-04-06T08:55:41.908Z,22.82
2024-04-06T08:56:41.891Z,22.49
2024-04-06T08:57:41.891Z,22.49
2024-04-06T08:58:41.866Z,22.70
2024-04-06T08:59:41.883Z,22.64
2024-04-06T09:00:41.845Z,22.60
2024-04-06T09:01:41.831Z,22.60
2024-04-06T09:02:46.846Z,22.68
2024-04-06T09:03:41.815Z,22.77
2024-04-06T09:04:41.815Z,22.97
2024-04-06T09:05:41.795Z,23.28
2024-04-06T09:06:41.783Z,23.42
2024-04-06T09:07:41.766Z,23.27
2024-04-06T09:08:41.758Z,23.28
2024-04-06T09:09:41.754Z,23.33
2024-04-06T09:10:41.748Z,23.54
2024-04-06T09:11:41.727Z,23.54
2024-04-06T09:12:41.714Z,23.55
2024-04-06T09:13:46.727Z,23.39
2024-04-06T09:14:41.715Z,23.07
2024-04-06T09:15:41.736Z,22.77
2024-04-06T09:16:41.675Z,22.95
2024-04-06T09:17:41.657Z,23.32
2024-04-06T09:18:41.661Z,23.65
2024-04-06T09:19:41.645Z,23.98
2024-04-06T09:20:41.628Z,23.93
2024-04-06T09:21:41.635Z,24.00
2024-04-06T09:22:41.607Z,24.20
2024-04-06T09:23:41.599Z,23.97
2024-04-06T09:24:41.589Z,24.08
2024-04-06T09:25:41.583Z,24.22
2024-04-06T09:26:46.581Z,24.32
2024-04-06T09:27:41.615Z,24.71
2024-04-06T09:28:41.564Z,24.91
2024-04-06T09:29:41.530Z,25.14
2024-04-06T09:30:41.520Z,25.14
2024-04-06T09:31:41.529Z,25.18
2024-04-06T09:32:41.499Z,25.15
2024-04-06T09:33:41.506Z,24.78
2024-04-06T09:34:41.478Z,24.22
2024-04-06T09:35:41.460Z,24.37
2024-04-06T09:36:41.456Z,24.03
2024-04-06T09:37:41.469Z,23.85
2024-04-06T09:38:41.432Z,23.68
2024-04-06T09:39:46.448Z,23.66
2024-04-06T09:40:41.432Z,23.60
2024-04-06T09:41:41.420Z,23.55
2024-04-06T09:42:41.387Z,23.87
2024-04-06T09:43:41.419Z,23.65
2024-04-06T09:44:41.376Z,23.90
2024-04-06T09:45:41.367Z,23.87
2024-04-06T09:46:41.346Z,23.83
2024-04-06T09:47:41.373Z,23.91
2024-04-06T09:48:41.326Z,23.94
2024-04-06T09:49:41.311Z,24.22
2024-04-06T09:50:41.895Z,24.61
2024-04-06T09:51:41.351Z,24.88
2024-04-06T09:52:46.313Z,25.06
2024-04-06T09:53:41.294Z,24.85
2024-04-06T09:54:41.286Z,24.85
2024-04-06T09:55:41.246Z,24.32
2024-04-06T09:56:41.247Z,24.31
2024-04-06T09:57:41.223Z,24.15
2024-04-06T09:58:41.248Z,24.35
2024-04-06T09:59:41.210Z,24.40
2024-04-06T10:00:41.194Z,24.45
2024-04-06T10:01:41.185Z,24.42
2024-04-06T10:02:41.173Z,24.47
2024-04-06T10:03:41.175Z,24.31
2024-04-06T10:04:41.176Z,24.39
2024-04-06T10:05:46.184Z,24.22
2024-04-06T10:06:41.164Z,24.16
2024-04-06T10:07:41.144Z,24.27
2024-04-06T10:08:41.109Z,24.22
2024-04-06T10:09:41.104Z,24.24
2024-04-06T10:10:41.109Z,24.30
2024-04-06T10:11:41.072Z,24.35
2024-04-06T10:12:41.074Z,24.60
2024-04-06T10:13:41.051Z,24.76
2024-04-06T10:14:41.053Z,25.10
2024-04-06T10:15:41.029Z,25.36
2024-04-06T10:16:41.034Z,25.17
2024-04-06T10:17:41.020Z,25.28
2024-04-06T10:18:46.034Z,24.99
2024-04-06T10:19:41.011Z,24.87
2024-04-06T10:20:41.005Z,24.99
2024-04-06T10:21:40.966Z,24.93
2024-04-06T10:22:40.977Z,25.18
2024-04-06T10:23:40.985Z,25.25
2024-04-06T10:24:40.932Z,25.52
2024-04-06T10:25:40.920Z,25.60
2024-04-06T10:26:40.926Z,25.25
2024-04-06T10:27:40.898Z,25.00
2024-04-06T10:28:40.899Z,24.91
2024-04-06T10:29:40.892Z,24.88
2024-04-06T10:30:40.882Z,24.88
2024-04-06T10:31:47.725Z,24.98
2024-04-06T10:32:40.870Z,24.96
2024-04-06T10:33:40.856Z,25.14
2024-04-06T10:34:46.520Z,25.14
2024-04-06T10:35:41.813Z,25.36
2024-04-06T10:36:40.804Z,25.40
2024-04-06T10:37:40.804Z,25.47
2024-04-06T10:38:40.797Z,25.15
2024-04-06T10:39:40.806Z,25.03
2024-04-06T10:40:40.761Z,24.80
2024-04-06T10:41:40.747Z,24.77
2024-04-06T10:42:40.761Z,24.39
2024-04-06T10:43:40.724Z,24.45
2024-04-06T10:44:45.770Z,24.69
2024-04-06T10:45:40.724Z,24.88
2024-04-06T10:46:40.765Z,24.68
2024-04-06T10:47:40.683Z,24.76
2024-04-06T10:48:40.669Z,24.96
2024-04-06T10:49:40.659Z,25.23
2024-04-06T10:50:40.675Z,25.43
2024-04-06T10:51:40.643Z,25.64
2024-04-06T10:52:40.636Z,25.88
2024-04-06T10:53:40.642Z,25.99
2024-04-06T10:54:40.608Z,25.83
2024-04-06T10:55:40.622Z,25.69
2024-04-06T10:56:40.587Z,25.62
2024-04-06T10:57:45.617Z,25.35
2024-04-06T10:58:40.603Z,25.54
2024-04-06T10:59:40.574Z,25.79
2024-04-06T11:00:40.549Z,25.87
2024-04-06T11:01:40.532Z,25.95
2024-04-06T11:02:40.531Z,25.98
2024-04-06T11:03:40.531Z,26.06
2024-04-06T11:04:40.509Z,25.91
2024-04-06T11:05:40.487Z,25.87
2024-04-06T11:06:40.486Z,25.92
2024-04-06T11:07:40.467Z,25.82
2024-04-06T11:08:40.472Z,25.67
2024-04-06T11:09:40.443Z,25.87
2024-04-06T11:10:45.485Z,26.09
2024-04-06T11:11:40.448Z,26.28
2024-04-06T11:12:40.433Z,26.55
2024-04-06T11:13:40.401Z,26.58
2024-04-06T11:14:40.399Z,26.87
2024-04-06T11:15:40.405Z,27.02
2024-04-06T11:16:40.392Z,27.04
2024-04-06T11:17:40.360Z,26.70
2024-04-06T11:18:42.190Z,26.52
2024-04-06T11:19:40.330Z,26.33
2024-04-06T11:20:40.326Z,26.51
2024-04-06T11:21:40.324Z,26.65
2024-04-06T11:22:40.333Z,26.60
2024-04-06T11:23:45.328Z,26.62
2024-04-06T11:24:40.305Z,26.67
2024-04-06T11:25:40.295Z,26.84
2024-04-06T11:26:40.272Z,26.35
2024-04-06T11:27:40.249Z,26.40
2024-04-06T11:28:40.248Z,26.18
2024-04-06T11:29:40.231Z,26.23
2024-04-06T11:30:40.237Z,26.23
2024-04-06T11:31:40.219Z,26.44
2024-04-06T11:32:40.207Z,26.76
2024-04-06T11:33:40.197Z,27.04
2024-04-06T11:34:40.182Z,27.44
2024-04-06T11:35:40.169Z,27.79
2024-04-06T11:36:45.176Z,27.93
2024-04-06T11:37:40.175Z,27.62
2024-04-06T11:38:40.176Z,27.88
2024-04-06T11:39:40.180Z,28.21
2024-04-06T11:40:40.113Z,28.34
2024-04-06T11:41:40.106Z,28.07
2024-04-06T11:42:40.090Z,28.22
2024-04-06T11:43:40.074Z,28.37
2024-04-06T11:44:40.066Z,28.56
2024-04-06T11:45:40.087Z,28.81
2024-04-06T11:46:40.068Z,28.85
2024-04-06T11:47:40.039Z,28.33
2024-04-06T11:48:40.025Z,28.14
2024-04-06T11:49:45.032Z,28.19
2024-04-06T11:50:40.024Z,28.24
2024-04-06T11:51:40.035Z,28.24
2024-04-06T11:52:40.011Z,27.94
2024-04-06T11:53:42.816Z,27.81
2024-04-06T11:54:39.971Z,27.70
2024-04-06T11:55:39.977Z,27.67
2024-04-06T11:56:39.952Z,27.29
2024-04-06T11:57:39.935Z,27.02
2024-04-06T11:58:39.930Z,26.91
2024-04-06T11:59:39.914Z,27.10
2024-04-06T12:00:39.913Z,27.06
2024-04-06T12:01:39.885Z,27.12
2024-04-06T12:02:44.908Z,26.89
2024-04-06T12:03:39.885Z,26.63
2024-04-06T12:04:39.886Z,26.44
2024-04-06T12:05:39.840Z,26.65
2024-04-06T12:06:39.857Z,26.92
2024-04-06T12:07:39.830Z,27.28
2024-04-06T12:08:39.815Z,27.59
2024-04-06T12:09:39.794Z,27.60
2024-04-06T12:10:39.841Z,27.40
2024-04-06T12:11:39.783Z,27.62
2024-04-06T12:12:39.784Z,27.70
2024-04-06T12:13:39.757Z,28.21
2024-04-06T12:14:39.756Z,28.25
2024-04-06T12:15:44.774Z,28.27
2024-04-06T12:16:39.767Z,29.08
2024-04-06T12:17:39.749Z,30.01
2024-04-06T12:18:39.736Z,30.46
2024-04-06T12:19:39.713Z,30.91
2024-04-06T12:20:39.684Z,31.09
2024-04-06T12:21:39.743Z,31.44
2024-04-06T12:22:39.677Z,31.70
2024-04-06T12:23:39.670Z,32.00
2024-04-06T12:24:39.641Z,32.23
2024-04-06T12:25:39.691Z,31.47
2024-04-06T12:26:39.635Z,30.67
2024-04-06T12:27:39.622Z,30.55
2024-04-06T12:28:44.683Z,30.75
2024-04-06T12:29:39.594Z,30.92
2024-04-06T12:30:39.576Z,30.91
2024-04-06T12:31:39.566Z,31.13
2024-04-06T12:32:39.570Z,31.51
2024-04-06T12:33:39.556Z,31.65
2024-04-06T12:34:39.553Z,30.75
2024-04-06T12:35:39.522Z,30.97
2024-04-06T12:36:39.510Z,31.20
2024-04-06T12:37:39.513Z,31.65
2024-04-06T12:38:39.501Z,31.75
2024-04-06T12:39:44.512Z,31.80
2024-04-06T12:40:39.553Z,31.89
2024-04-06T12:41:39.463Z,32.10
2024-04-06T12:42:39.521Z,32.03
2024-04-06T12:43:39.443Z,31.72
2024-04-06T12:44:39.450Z,32.03
2024-04-06T12:45:39.425Z,32.33
2024-04-06T12:46:39.464Z,32.15
2024-04-06T12:47:39.400Z,32.22
2024-04-06T12:48:39.407Z,31.86
2024-04-06T12:49:39.402Z,31.76
2024-04-06T12:50:44.413Z,32.15
2024-04-06T12:51:39.369Z,32.01
2024-04-06T12:52:39.402Z,32.40
2024-04-06T12:53:39.361Z,32.67
2024-04-06T12:54:39.346Z,31.93
2024-04-06T12:55:39.326Z,32.08
2024-04-06T12:56:39.316Z,32.14
2024-04-06T12:57:39.305Z,31.72
2024-04-06T12:58:39.308Z,31.73
2024-04-06T12:59:39.344Z,31.88
2024-04-06T13:00:39.281Z,31.69
2024-04-06T13:01:44.281Z,31.66
2024-04-06T13:02:39.249Z,31.73
2024-04-06T13:03:46.068Z,31.07
2024-04-06T13:04:39.253Z,30.46
2024-04-06T13:05:39.232Z,29.94
2024-04-06T13:06:39.234Z,29.34
2024-04-06T13:07:39.211Z,28.90
2024-04-06T13:08:39.212Z,28.62
2024-04-06T13:09:39.194Z,28.44
2024-04-06T13:10:39.167Z,28.29
2024-04-06T13:11:39.172Z,28.00
2024-04-06T13:12:44.174Z,27.92
2024-04-06T13:13:39.153Z,27.81
2024-04-06T13:14:39.223Z,27.54
2024-04-06T13:15:39.146Z,27.27
2024-04-06T13:16:39.101Z,27.27
2024-04-06T13:17:39.107Z,27.21
2024-04-06T13:18:39.084Z,27.12
2024-04-06T13:19:39.067Z,27.18
2024-04-06T13:20:39.058Z,27.25
2024-04-06T13:21:39.042Z,27.28
2024-04-06T13:22:39.044Z,27.34
2024-04-06T13:23:39.047Z,27.31
2024-04-06T13:24:39.010Z,27.28
2024-04-06T13:25:44.025Z,27.34
2024-04-06T13:26:39.029Z,27.22
2024-04-06T13:27:39.001Z,27.37
2024-04-06T13:28:39.034Z,27.28
2024-04-06T13:29:39.008Z,27.39
2024-04-06T13:30:38.957Z,27.43
2024-04-06T13:31:38.943Z,27.40
2024-04-06T13:32:38.926Z,27.43
2024-04-06T13:33:38.917Z,27.46
2024-04-06T13:34:38.931Z,27.39
2024-04-06T13:35:38.934Z,27.24
2024-04-06T13:36:38.891Z,27.28
2024-04-06T13:37:38.880Z,27.34
2024-04-06T13:38:43.889Z,27.39
2024-04-06T13:39:38.873Z,27.34
2024-04-06T13:40:38.864Z,27.32
2024-04-06T13:41:38.854Z,27.32
2024-04-06T13:42:38.814Z,27.43
2024-04-06T13:43:38.806Z,27.39
2024-04-06T13:44:38.798Z,27.44
2024-04-06T13:45:38.785Z,27.44
2024-04-06T13:46:38.796Z,27.40
2024-04-06T13:47:38.821Z,27.40
2024-04-06T13:48:38.753Z,27.39
2024-04-06T13:49:38.750Z,27.39
2024-04-06T13:50:38.729Z,27.44
2024-04-06T13:51:43.756Z,27.36
2024-04-06T13:52:38.764Z,27.39
2024-04-06T13:53:38.732Z,27.41
2024-04-06T13:54:38.775Z,27.44
2024-04-06T13:55:38.683Z,27.41
2024-04-06T13:56:38.663Z,27.34
2024-04-06T13:57:38.656Z,27.40
2024-04-06T13:58:38.644Z,27.37
2024-04-06T13:59:38.673Z,27.43
2024-04-06T14:00:38.643Z,27.51
2024-04-06T14:01:38.612Z,27.47
2024-04-06T14:02:38.611Z,27.44
2024-04-06T14:03:38.590Z,27.44
2024-04-06T14:04:43.627Z,27.44
2024-04-06T14:05:38.596Z,27.43
2024-04-06T14:06:38.564Z,27.44
2024-04-06T14:07:38.550Z,27.46
2024-04-06T14:08:38.534Z,27.47
2024-04-06T14:09:38.524Z,27.54
2024-04-06T14:10:38.533Z,27.49
2024-04-06T14:11:38.512Z,27.47
2024-04-06T14:12:38.491Z,27.57
2024-04-06T14:13:38.484Z,27.57
2024-04-06T14:14:38.468Z,27.55
2024-04-06T14:15:43.497Z,27.59
2024-04-06T14:16:38.464Z,27.60
2024-04-06T14:17:38.457Z,27.63
2024-04-06T14:18:38.446Z,27.63
2024-04-06T14:19:38.421Z,27.65
2024-04-06T14:20:38.403Z,27.65
2024-04-06T14:21:38.390Z,27.63
2024-04-06T14:22:38.381Z,27.75
2024-04-06T14:23:38.414Z,27.67
2024-04-06T14:24:38.376Z,27.69
2024-04-06T14:25:38.351Z,27.65
2024-04-06T14:26:43.358Z,27.65
2024-04-06T14:27:38.333Z,27.63
2024-04-06T14:28:38.347Z,27.67
2024-04-06T14:29:38.329Z,27.69
2024-04-06T14:30:38.295Z,27.70
2024-04-06T14:31:38.288Z,27.70
2024-04-06T14:32:38.290Z,27.70
2024-04-06T14:33:38.265Z,27.78
2024-04-06T14:34:38.267Z,27.78
2024-04-06T14:35:38.277Z,27.69
2024-04-06T14:36:38.243Z,27.82
2024-04-06T14:37:43.254Z,27.82
2024-04-06T14:38:38.230Z,27.92
2024-04-06T14:39:38.194Z,27.85
2024-04-06T14:40:38.189Z,27.94
2024-04-06T14:41:38.213Z,27.87
2024-04-06T14:42:38.164Z,27.90
2024-04-06T14:43:38.164Z,27.92
2024-04-06T14:44:38.143Z,27.87
2024-04-06T14:45:38.132Z,27.85
2024-04-06T14:46:38.118Z,27.84
2024-04-06T14:47:38.148Z,27.84
2024-04-06T14:48:43.134Z,27.84
2024-04-06T14:49:38.089Z,27.87
2024-04-06T14:50:38.093Z,27.97
2024-04-06T14:51:38.085Z,27.87
2024-04-06T14:52:38.070Z,27.85
2024-04-06T14:53:38.078Z,27.81
2024-04-06T14:54:38.031Z,27.94
2024-04-06T14:55:38.023Z,27.82
2024-04-06T14:56:38.014Z,27.85
2024-04-06T14:57:38.082Z,27.92
2024-04-06T14:58:38.010Z,27.81
2024-04-06T14:59:43.031Z,27.81
2024-04-06T15:00:38.073Z,27.85
2024-04-06T15:01:37.988Z,27.93
2024-04-06T15:02:38.017Z,27.81
2024-04-06T15:03:38.116Z,27.94
2024-04-06T15:04:37.970Z,27.96
2024-04-06T15:05:38.042Z,27.85
2024-04-06T15:06:38.079Z,27.92
2024-04-06T15:07:38.011Z,27.90
2024-04-06T15:08:37.883Z,27.87
2024-04-06T15:09:37.878Z,27.81
2024-04-06T15:10:42.889Z,27.74
2024-04-06T15:11:37.884Z,27.79
2024-04-06T15:12:37.844Z,27.79
2024-04-06T15:13:37.844Z,27.78
2024-04-06T15:14:37.858Z,27.78
2024-04-06T15:15:37.809Z,27.75
2024-04-06T15:16:37.817Z,27.77
2024-04-06T15:17:37.806Z,27.81
2024-04-06T15:18:37.853Z,27.75
2024-04-06T15:19:37.768Z,27.69
2024-04-06T15:20:37.769Z,27.67
2024-04-06T15:21:42.770Z,27.65
2024-04-06T15:22:37.800Z,27.69
2024-04-06T15:23:37.735Z,27.72
2024-04-06T15:24:37.724Z,27.67
2024-04-06T15:25:37.710Z,27.65
2024-04-06T15:26:37.702Z,27.63
2024-04-06T15:27:37.683Z,27.63
2024-04-06T15:28:37.728Z,27.67
2024-04-06T15:29:37.699Z,27.69
2024-04-06T15:30:37.643Z,27.69
2024-04-06T15:31:37.651Z,27.67
2024-04-06T15:35:04.642Z,27.67
2024-04-06T15:35:31.243Z,27.70
2024-04-06T15:36:31.238Z,27.62
2024-04-06T15:37:31.248Z,27.60
2024-04-06T15:38:31.207Z,27.62
2024-04-06T15:39:31.212Z,27.59
2024-04-06T15:40:31.215Z,27.63
2024-04-06T15:41:31.169Z,27.60
2024-04-06T15:42:31.164Z,27.57
2024-04-06T15:43:31.159Z,27.65
2024-04-06T15:44:31.179Z,27.60
2024-04-06T15:45:36.166Z,27.51
2024-04-06T15:46:31.250Z,27.60
2024-04-06T15:47:31.221Z,27.57
2024-04-06T15:48:31.107Z,27.59
2024-04-06T15:49:31.116Z,27.59
2024-04-06T15:50:31.101Z,27.57
2024-04-06T15:51:31.072Z,27.41
2024-04-06T15:52:31.094Z,27.44
2024-04-06T15:53:31.070Z,27.50
2024-04-06T15:54:31.042Z,27.55
2024-04-06T15:55:31.076Z,27.43
2024-04-06T15:56:31.005Z,27.43
2024-04-06T15:57:31.014Z,27.41
2024-04-06T15:58:36.041Z,27.43
2024-04-06T15:59:30.989Z,27.39
2024-04-06T16:00:31.069Z,27.43
2024-04-06T16:01:31.014Z,27.43
2024-04-06T16:02:30.951Z,27.28
2024-04-06T16:03:30.969Z,27.36
2024-04-06T16:04:30.998Z,27.29
2024-04-06T16:05:30.903Z,27.27
2024-04-06T16:06:30.922Z,27.27
2024-04-06T16:07:30.990Z,27.28
2024-04-06T16:08:30.868Z,27.25
2024-04-06T16:09:30.886Z,27.24
2024-04-06T16:10:30.918Z,27.21
2024-04-06T16:11:35.896Z,27.21
2024-04-06T16:12:30.848Z,27.22
2024-04-06T16:13:30.885Z,27.21
2024-04-06T16:14:30.805Z,27.17
2024-04-06T16:15:30.794Z,27.12
2024-04-06T16:16:30.806Z,27.14
2024-04-06T16:17:30.780Z,27.06
2024-04-06T16:18:30.765Z,27.07
2024-04-06T16:19:30.812Z,27.00
2024-04-06T16:20:30.745Z,27.02
2024-04-06T16:21:30.733Z,26.99
2024-04-06T16:22:30.779Z,27.09
2024-04-06T16:23:32.502Z,26.97
2024-04-06T16:24:35.748Z,26.94
2024-04-06T16:25:30.721Z,26.91
2024-04-06T16:26:30.668Z,26.97
2024-04-06T16:27:30.656Z,26.99
2024-04-06T16:28:30.684Z,27.02
2024-04-06T16:29:30.643Z,27.03
2024-04-06T16:30:30.651Z,27.02
2024-04-06T16:31:30.697Z,26.94
2024-04-06T16:32:30.607Z,26.89
2024-04-06T16:33:30.598Z,26.94
2024-04-06T16:34:30.635Z,26.95
2024-04-06T16:35:36.812Z,26.97
2024-04-06T16:36:30.558Z,27.02
2024-04-06T16:37:30.596Z,27.07
2024-04-06T16:38:30.569Z,26.99
2024-04-06T16:39:30.529Z,26.99
2024-04-06T16:40:30.619Z,27.06
2024-04-06T16:41:30.676Z,27.00
2024-04-06T16:42:30.495Z,26.92
2024-04-06T16:43:30.514Z,26.92
2024-04-06T16:44:30.496Z,26.94
2024-04-06T16:45:30.459Z,26.91
2024-04-06T16:46:35.487Z,26.87
2024-04-06T16:47:30.457Z,26.89
2024-04-06T16:48:30.476Z,26.88
2024-04-06T16:49:30.435Z,26.89
2024-04-06T16:50:30.405Z,26.91
2024-04-06T16:51:30.405Z,26.92
2024-04-06T16:52:30.447Z,26.88
2024-04-06T16:53:30.370Z,26.87
2024-04-06T16:54:30.414Z,26.88
2024-04-06T16:55:30.377Z,26.85
2024-04-06T16:56:30.343Z,26.81
2024-04-06T16:57:35.366Z,26.80
2024-04-06T16:58:30.361Z,26.69
2024-04-06T16:59:30.304Z,26.66
2024-04-06T17:00:30.293Z,26.62
2024-04-06T17:01:30.314Z,26.63
2024-04-06T17:02:30.306Z,26.48
2024-04-06T17:03:30.271Z,26.60
2024-04-06T17:04:30.304Z,26.50
2024-04-06T17:05:30.250Z,26.52
2024-04-06T17:06:30.241Z,26.55
2024-04-06T17:07:30.259Z,26.40
2024-04-06T17:08:35.244Z,26.39
2024-04-06T17:09:30.188Z,26.37
2024-04-06T17:10:30.247Z,26.39
2024-04-06T17:11:31.823Z,26.29
2024-04-06T17:12:30.208Z,26.35
2024-04-06T17:13:30.218Z,26.40
2024-04-06T17:14:30.174Z,26.25
2024-04-06T17:15:30.126Z,26.23
2024-04-06T17:16:30.161Z,26.23
2024-04-06T17:17:30.102Z,26.21
2024-04-06T17:18:30.112Z,26.13
2024-04-06T17:19:35.132Z,26.17
2024-04-06T17:20:30.072Z,26.12
2024-04-06T17:21:30.053Z,25.98
2024-04-06T17:22:30.103Z,25.95
2024-04-06T17:23:30.050Z,25.92
2024-04-06T17:24:30.043Z,25.90
2024-04-06T17:25:30.084Z,25.77
2024-04-06T17:26:30.039Z,25.75
2024-04-06T17:27:29.985Z,25.77
2024-04-06T17:28:30.246Z,25.80
2024-04-06T17:29:29.971Z,25.69
2024-04-06T17:30:35.003Z,25.70
2024-04-06T17:31:29.961Z,25.69
2024-04-06T17:32:29.977Z,25.69
2024-04-06T17:33:29.928Z,25.55
2024-04-06T17:34:29.950Z,25.54
2024-04-06T17:35:29.918Z,25.52
2024-04-06T17:36:29.912Z,25.50
2024-04-06T17:37:29.943Z,25.43
2024-04-06T17:38:29.869Z,25.50
2024-04-06T17:39:29.860Z,25.54
2024-04-06T17:40:29.856Z,25.57
2024-04-06T17:41:34.887Z,25.52
2024-04-06T17:42:29.823Z,25.52
2024-04-06T17:43:29.842Z,25.54
2024-04-06T17:44:29.805Z,25.54
2024-04-06T17:45:29.838Z,25.54
2024-04-06T17:46:29.804Z,25.54
2024-04-06T17:47:29.904Z,25.40
2024-04-06T17:48:29.755Z,25.38
2024-04-06T17:49:29.777Z,25.36
2024-04-06T17:50:29.759Z,25.25
2024-04-06T17:51:29.721Z,25.18
2024-04-06T17:52:34.815Z,25.30
2024-04-06T17:53:29.711Z,25.36
2024-04-06T17:54:29.705Z,25.42
2024-04-06T17:55:29.710Z,25.36
2024-04-06T17:56:29.686Z,25.27
2024-04-06T17:57:29.716Z,25.38
2024-04-06T17:58:29.680Z,25.43
2024-04-06T17:59:29.632Z,25.46
2024-04-06T18:00:29.644Z,25.36
2024-04-06T18:01:29.615Z,25.27
2024-04-06T18:02:29.615Z,25.23